Time,TemperatureF,DewpointF,PressureIn,WindDirection,WindDirectionDegrees,WindSpeedMPH,WindSpeedGustMPH,Humidity,HourlyPrecipIn,Conditions,Clouds,dailyrainin,SoftwareType,DateUTC
2013-07-30 00:03:00,72.0,-99.9,-100.00,SW,231,4.0,6.0,-999,-99.99,,,-99.99,,2013-07-30 05:03:00,
2013-07-30 01:53:00,70.0,-99.9,-100.00,South,179,10.0,10.0,-999,-99.99,,,-99.99,,2013-07-30 06:53:00,
2013-07-30 02:03:00,70.0,-99.9,-100.00,South,179,10.0,10.0,-999,-99.99,,,-99.99,,2013-07-30 07:03:00,
2013-07-30 03:43:00,71.0,-99.9,-100.00,SW,214,4.0,7.0,-999,-99.99,,,-99.99,,2013-07-30 08:43:00,
2013-07-30 03:53:00,71.0,-99.9,-100.00,SW,214,4.0,7.0,-999,-99.99,,,-99.99,,2013-07-30 08:53:00,
2013-07-30 05:44:00,73.0,-99.9,-100.00,SSW,196,7.0,8.0,-999,-99.99,,,-99.99,,2013-07-30 10:44:00,
2013-07-30 05:52:00,73.0,-99.9,-100.00,SSW,196,7.0,8.0,-999,-99.99,,,-99.99,,2013-07-30 10:52:00,
2013-07-30 07:42:00,72.0,-99.9,-100.00,SSW,193,6.0,9.0,-999,-99.99,,,-99.99,,2013-07-30 12:42:00,
2013-07-30 07:53:00,72.0,-99.9,-100.00,SSW,193,6.0,9.0,-999,-99.99,,,-99.99,,2013-07-30 12:53:00,
2013-07-30 09:43:00,77.0,-99.9,-100.00,SW,216,7.0,9.0,-999,-99.99,,,-99.99,,2013-07-30 14:43:00,
2013-07-30 09:53:00,77.0,-99.9,-100.00,SW,216,7.0,9.0,-999,-99.99,,,-99.99,,2013-07-30 14:53:00,
2013-07-30 13:12:00,90.0,-99.9,-100.00,NNE,30,3.0,7.0,-999,-99.99,,,-99.99,,2013-07-30 18:12:00,
2013-07-30 15:13:00,93.0,-99.9,-100.00,ESE,112,4.0,10.0,-999,-99.99,,,-99.99,,2013-07-30 20:13:00,
2013-07-30 16:12:00,81.0,-99.9,-100.00,WSW,241,10.0,16.0,-999,-99.99,,,-99.99,,2013-07-30 21:12:00,
2013-07-30 16:22:00,81.0,-99.9,-100.00,WSW,241,10.0,16.0,-999,-99.99,,,-99.99,,2013-07-30 21:22:00,
2013-07-30 18:13:00,80.0,-99.9,-100.00,WSW,246,7.0,9.0,-999,-99.99,,,-99.99,,2013-07-30 23:13:00,
2013-07-30 18:23:00,80.0,-99.9,-100.00,WSW,246,7.0,9.0,-999,-99.99,,,-99.99,,2013-07-30 23:23:00,
2013-07-30 20:12:00,76.0,-99.9,-100.00,ESE,119,13.0,18.0,-999,-99.99,,,-99.99,,2013-07-31 01:12:00,
2013-07-30 20:22:00,76.0,-99.9,-100.00,ESE,119,13.0,18.0,-999,-99.99,,,-99.99,,2013-07-31 01:22:00,
2013-07-30 22:02:00,74.0,-99.9,-100.00,SSE,149,6.0,7.0,-999,-99.99,,,-99.99,,2013-07-31 03:02:00,
2013-07-30 22:12:00,74.0,-99.9,-100.00,SSE,149,6.0,7.0,-999,-99.99,,,-99.99,,2013-07-31 03:12:00,
2013-07-30 22:22:00,74.0,-99.9,-100.00,SSE,149,6.0,7.0,-999,-99.99,,,-99.99,,2013-07-31 03:22:00,